Time;durP1;ratioP1;P1;durP2;ratioP2;P2;SDS_P1;SDS_P2;PMS_P1;PMS_P2;Temp;Humidity;BMP_temperature;BMP_pressure;BME280_temperature;BME280_humidity;BME280_pressure;Samples;Min_cycle;Max_cycle;Signal;HPM_P1;HPM_P2
2022/12/15 00:40:10;;;;;;;14.95;2.17;;;6.10;99.90;;;;;;5072939;28;20048;-65
2022/12/15 00:42:35;;;;;;;11.48;2.20;;;6.20;99.90;;;;;;5071783;28;20042;-65
2022/12/15 00:45:01;;;;;;;16.35;2.30;;;6.10;99.90;;;;;;5073215;28;20424;-66
2022/12/15 00:47:26;;;;;;;11.15;2.30;;;6.10;99.90;;;;;;5072286;28;20505;-65
2022/12/15 01:20:18;;;;;;;6.90;1.90;;;5.10;99.90;;;;;;5070512;28;20068;-65
2022/12/15 01:22:48;;;;;;;11.75;1.50;;;5.00;99.90;;;;;;5072594;28;20090;-65
2022/12/15 01:25:16;;;;;;;8.35;1.58;;;5.10;99.90;;;;;;5070733;28;20047;-65
2022/12/15 01:27:42;;;;;;;10.55;1.58;;;5.00;99.90;;;;;;5071829;28;20433;-65
2022/12/15 01:30:10;;;;;;;16.42;2.22;;;4.90;99.90;;;;;;5088175;28;20115;-65
2022/12/15 01:32:36;;;;;;;8.45;2.88;;;4.80;99.90;;;;;;5060544;28;20115;-65
2022/12/15 01:35:05;;;;;;;7.40;1.63;;;4.70;99.90;;;;;;5071441;28;20174;-65
2022/12/15 01:37:32;;;;;;;13.40;1.95;;;4.50;99.90;;;;;;5071986;28;20074;-65
2022/12/15 01:42:42;;;;;;;10.73;2.00;;;4.30;99.90;;;;;;5061860;28;20142;-65
2022/12/15 01:45:23;;;;;;;7.35;1.55;;;4.60;1.00;;;;;;5070964;28;20498;-65
2022/12/15 01:47:57;;;;;;;13.10;2.40;;;4.70;1.00;;;;;;5071660;28;20045;-65
2022/12/15 01:50:24;;;;;;;8.38;1.83;;;4.80;1.00;;;;;;5069613;28;20040;-65
2022/12/15 01:52:50;;;;;;;11.93;1.85;;;4.90;1.00;;;;;;5070219;28;20111;-65
2022/12/15 01:55:18;;;;;;;9.30;1.83;;;5.10;1.00;;;;;;5071580;28;20494;-65
2022/12/15 01:57:45;;;;;;;10.82;1.90;;;5.10;1.00;;;;;;5071541;28;20032;-65
2022/12/15 02:00:12;;;;;;;11.10;2.03;;;4.90;1.00;;;;;;5071418;28;20115;-64
2022/12/15 02:02:38;;;;;;;12.95;2.03;;;4.80;1.00;;;;;;5069853;28;20036;-65
2022/12/15 02:05:05;;;;;;;9.90;2.60;;;4.70;1.00;;;;;;5070321;28;20055;-65
2022/12/15 02:07:30;;;;;;;13.75;2.00;;;4.70;1.00;;;;;;5070327;28;20045;-65
2022/12/15 02:09:59;;;;;;;13.45;2.25;;;4.70;1.00;;;;;;5071494;28;20375;-65
2022/12/15 02:12:33;;;;;;;5.82;1.40;;;4.80;1.00;;;;;;5071573;28;20036;-65
2022/12/15 02:15:16;;;;;;;10.32;1.77;;;4.80;1.00;;;;;;5071699;28;20040;-65
2022/12/15 02:17:53;;;;;;;7.55;1.70;;;4.80;1.00;;;;;;5069726;28;20082;-65
2022/12/15 02:20:50;;;;;;;5.95;1.70;;;4.80;1.00;;;;;;5069607;28;20123;-65
2022/12/15 02:23:34;;;;;;;;;;;4.80;1.00;;;;;;5072238;28;20505;-64
2022/12/15 02:26:16;;;;;;;7.90;1.52;;;4.60;1.00;;;;;;5065536;28;19970;-64
2022/12/15 02:29:27;;;;;;;12.57;1.77;;;4.70;6.30;;;;;;5069340;28;20062;-64
2022/12/15 02:31:59;;;;;;;8.20;1.50;;;4.50;22.70;;;;;;5071800;28;20041;-64
2022/12/15 02:34:48;;;;;;;6.32;1.73;;;4.60;33.00;;;;;;5071012;28;20299;-64
2022/12/15 02:37:25;;;;;;;5.50;1.60;;;4.50;41.50;;;;;;5070085;28;20048;-64
2022/12/15 02:39:50;;;;;;;8.23;1.67;;;4.50;50.10;;;;;;5070379;28;20045;-65
2022/12/15 02:42:16;;;;;;;6.75;1.42;;;4.60;52.50;;;;;;5068667;28;20045;-65
2022/12/15 02:44:48;;;;;;;5.00;1.40;;;4.50;51.80;;;;;;5068477;28;20049;-65
2022/12/15 02:47:30;;;;;;;8.27;1.40;;;4.70;48.20;;;;;;5071776;28;20756;-64
2022/12/15 02:50:10;;;;;;;8.15;1.42;;;4.50;45.70;;;;;;5071183;28;20043;-64
2022/12/15 02:52:56;;;;;;;8.18;1.83;;;4.40;39.70;;;;;;5074229;28;20064;-65
2022/12/15 02:55:59;;;;;;;5.72;1.40;;;4.30;32.90;;;;;;5075729;28;20040;-65
2022/12/15 02:58:37;;;;;;;9.18;1.60;;;4.10;30.10;;;;;;5064206;28;20364;-65
2022/12/15 03:01:10;;;;;;;6.70;1.58;;;4.00;35.60;;;;;;5074715;28;20397;-65
2022/12/15 03:03:37;;;;;;;5.53;1.70;;;4.10;41.50;;;;;;5073073;28;20048;-65
2022/12/15 03:06:03;;;;;;;10.02;2.17;;;3.80;48.50;;;;;;5075202;28;20508;-65
2022/12/15 03:08:29;;;;;;;12.10;1.95;;;3.90;56.60;;;;;;5075344;28;20041;-65
2022/12/15 03:10:56;;;;;;;7.82;1.80;;;3.90;63.10;;;;;;5075249;28;20563;-65
2022/12/15 03:13:23;;;;;;;9.65;2.10;;;3.70;73.50;;;;;;5070260;28;20037;-65
2022/12/15 03:15:48;;;;;;;10.55;1.70;;;3.90;82.10;;;;;;5073588;28;20028;-65
2022/12/15 03:18:14;;;;;;;14.60;2.45;;;3.80;90.30;;;;;;5074596;28;20145;-65
2022/12/15 03:20:40;;;;;;;11.60;1.83;;;3.70;94.50;;;;;;5074682;28;20097;-65
2022/12/15 03:23:06;;;;;;;12.32;2.25;;;3.50;98.80;;;;;;5073952;28;20432;-65
2022/12/15 03:25:31;;;;;;;11.32;2.05;;;3.60;99.90;;;;;;5074082;28;20040;-65
2022/12/15 03:27:57;;;;;;;8.48;2.38;;;3.60;99.90;;;;;;5069694;28;20470;-65
2022/12/15 03:30:23;;;;;;;12.63;2.20;;;3.40;99.90;;;;;;5071480;28;20060;-65
2022/12/15 03:32:49;;;;;;;11.27;2.13;;;3.50;99.90;;;;;;5071409;28;20470;-65
2022/12/15 03:35:14;;;;;;;11.93;1.92;;;3.40;99.90;;;;;;5074578;28;20037;-65
2022/12/15 03:37:41;;;;;;;6.53;1.95;;;3.40;99.90;;;;;;5072424;28;20052;-64
2022/12/15 03:40:07;;;;;;;7.50;2.08;;;3.40;99.90;;;;;;5071357;28;20040;-65
2022/12/15 03:42:48;;;;;;;7.93;1.98;;;3.30;99.90;;;;;;5072468;28;20465;-65
2022/12/15 03:45:17;;;;;;;7.35;1.90;;;3.40;99.90;;;;;;5073724;28;20168;-65
2022/12/15 03:47:43;;;;;;;10.63;2.70;;;3.50;99.90;;;;;;5073524;28;20123;-65
2022/12/15 03:50:10;;;;;;;11.90;2.47;;;3.30;99.90;;;;;;5073337;28;20098;-65
2022/12/15 03:52:36;;;;;;;15.60;4.82;;;3.60;99.90;;;;;;5074080;28;20029;-64
2022/12/15 03:55:02;;;;;;;17.88;2.58;;;3.50;99.90;;;;;;5074671;28;20120;-65
2022/12/15 03:57:28;;;;;;;13.00;2.70;;;3.70;99.90;;;;;;5073433;28;20045;-65
2022/12/15 03:59:54;;;;;;;16.33;2.80;;;3.70;99.90;;;;;;5073228;28;20036;-65
2022/12/15 04:02:20;;;;;;;12.02;1.90;;;3.50;99.90;;;;;;5073055;28;20036;-65
2022/12/15 04:04:45;;;;;;;16.08;2.50;;;3.50;99.90;;;;;;5073321;28;20036;-65
2022/12/15 04:07:11;;;;;;;12.10;2.13;;;3.60;99.90;;;;;;5073512;28;20043;-65
2022/12/15 04:09:36;;;;;;;16.52;2.50;;;3.40;99.90;;;;;;5071603;28;20391;-65
2022/12/15 04:12:02;;;;;;;13.75;2.33;;;3.40;99.90;;;;;;5071818;28;21623;-65
2022/12/15 04:14:31;;;;;;;14.25;2.33;;;3.40;99.90;;;;;;5073743;28;20086;-65
2022/12/15 04:16:56;;;;;;;13.23;2.63;;;3.30;99.90;;;;;;5071390;28;20032;-65
2022/12/15 04:22:06;;;;;;;9.43;2.30;;;3.10;99.90;;;;;;5071220;28;20043;-65
2022/12/15 05:33:03;;;;;;;16.98;2.63;;;4.60;1.00;;;;;;5063327;28;20047;-65
2022/12/15 05:35:29;;;;;;;15.63;2.53;;;4.40;1.00;;;;;;5066440;28;20486;-65
2022/12/15 05:37:55;;;;;;;13.43;3.00;;;4.30;99.90;;;;;;5070827;28;20133;-65
2022/12/15 05:40:20;;;;;;;16.30;2.50;;;4.40;99.90;;;;;;5071744;28;20035;-65
2022/12/15 05:42:46;;;;;;;13.45;2.70;;;4.20;99.90;;;;;;5069682;28;20102;-65
2022/12/15 05:45:11;;;;;;;9.75;2.05;;;4.00;99.90;;;;;;5070374;28;20489;-65
2022/12/15 05:47:37;;;;;;;8.25;1.85;;;3.90;99.90;;;;;;5070731;28;20044;-65
2022/12/15 05:50:03;;;;;;;8.73;2.08;;;3.90;99.90;;;;;;5064525;28;20386;-64
2022/12/15 05:52:29;;;;;;;13.15;2.30;;;3.80;99.90;;;;;;5069102;28;20378;-66
2022/12/15 05:54:54;;;;;;;16.50;2.67;;;3.90;99.90;;;;;;5069160;28;20032;-66
2022/12/15 05:57:20;;;;;;;11.68;2.25;;;3.90;99.90;;;;;;5068686;28;20127;-66
2022/12/15 05:59:45;;;;;;;14.38;2.47;;;3.90;99.90;;;;;;5068177;28;20047;-66
2022/12/15 06:02:11;;;;;;;10.55;2.13;;;3.60;99.90;;;;;;5063262;28;20479;-66
2022/12/15 06:04:36;;;;;;;10.18;1.90;;;3.80;99.90;;;;;;5065606;28;20029;-65
2022/12/15 06:07:02;;;;;;;10.48;2.50;;;3.40;99.90;;;;;;5065370;28;20735;-65
2022/12/15 06:09:27;;;;;;;7.78;2.22;;;3.20;99.90;;;;;;5064413;28;20032;-65
2022/12/15 06:11:53;;;;;;;13.40;2.20;;;3.80;1.00;;;;;;5066960;28;20032;-66
2022/12/15 06:14:19;;;;;;;11.20;2.53;;;3.90;1.00;;;;;;5070496;28;20049;-66
2022/12/15 06:16:45;;;;;;;20.02;2.63;;;3.60;1.00;;;;;;5071643;28;20033;-66
2022/12/15 06:19:10;;;;;;;11.57;2.40;;;3.90;1.00;;;;;;5070391;28;20405;-66
2022/12/15 06:21:36;;;;;;;14.35;3.03;;;4.00;1.00;;;;;;5071612;28;20043;-66
2022/12/15 06:24:03;;;;;;;12.85;2.92;;;3.80;1.00;;;;;;5070960;28;20037;-66
2022/12/15 06:26:32;;;;;;;10.38;2.17;;;3.90;1.00;;;;;;5071753;28;20067;-66
2022/12/15 06:29:02;;;;;;;14.25;2.15;;;3.60;99.90;;;;;;5074161;28;20165;-66
2022/12/15 06:31:29;;;;;;;16.42;2.60;;;3.90;1.00;;;;;;5075930;28;20099;-66
2022/12/15 06:33:55;;;;;;;13.88;2.22;;;4.00;1.00;;;;;;5074162;28;20498;-66
2022/12/15 06:36:22;;;;;;;12.00;2.40;;;4.10;1.00;;;;;;5075284;28;20033;-66
2022/12/15 06:38:49;;;;;;;10.50;2.58;;;4.20;1.00;;;;;;5074280;28;20035;-66
2022/12/15 06:41:18;;;;;;;12.02;2.60;;;4.00;1.00;;;;;;5072642;28;20052;-66
2022/12/15 06:43:51;;;;;;;16.08;2.60;;;4.10;1.00;;;;;;5074060;28;20056;-66
2022/12/15 06:46:17;;;;;;;15.15;3.17;;;4.00;1.00;;;;;;5073570;28;20456;-67
2022/12/15 06:48:45;;;;;;;39.63;3.70;;;3.80;1.00;;;;;;5074017;28;20029;-66
2022/12/15 06:51:12;;;;;;;9.90;2.65;;;4.20;1.00;;;;;;5072875;28;20116;-66
2022/12/15 06:53:39;;;;;;;11.45;2.40;;;4.00;1.00;;;;;;5071690;28;20132;-66
2022/12/15 06:56:12;;;;;;;14.65;2.53;;;3.90;1.00;;;;;;5072943;28;20043;-66
2022/12/15 06:58:38;;;;;;;12.93;2.65;;;4.30;1.00;;;;;;5074559;28;20040;-66
2022/12/15 07:01:06;;;;;;;15.18;2.50;;;4.30;1.00;;;;;;5075193;28;20505;-66
2022/12/15 07:03:32;;;;;;;11.15;2.90;;;4.20;1.00;;;;;;5090877;28;20028;-66
2022/12/15 07:06:03;;;;;;;17.02;3.05;;;4.00;1.00;;;;;;5075281;28;20162;-66
2022/12/15 07:08:29;;;;;;;23.52;3.08;;;3.70;1.00;;;;;;5072013;28;20048;-66
2022/12/15 07:10:55;;;;;;;13.55;2.85;;;3.80;1.00;;;;;;5074501;28;20044;-66
2022/12/15 07:13:20;;;;;;;18.15;3.05;;;4.20;1.00;;;;;;5074205;28;20398;-66
2022/12/15 07:15:48;;;;;;;17.10;3.15;;;4.40;1.00;;;;;;5074218;28;20037;-66
2022/12/15 07:18:15;;;;;;;16.02;2.97;;;4.40;1.00;;;;;;5074139;28;20037;-66
2022/12/15 07:20:41;;;;;;;18.92;3.08;;;4.50;1.00;;;;;;5073401;28;20039;-66
2022/12/15 07:23:08;;;;;;;12.98;2.42;;;4.70;1.00;;;;;;5074739;28;20037;-66
2022/12/15 07:25:38;;;;;;;19.15;2.90;;;4.90;1.00;;;;;;5074886;28;20044;-67
2022/12/15 07:28:05;;;;;;;16.10;2.58;;;5.00;99.90;;;;;;5071748;28;20131;-65
2022/12/15 07:30:31;;;;;;;12.70;2.40;;;5.30;99.90;;;;;;5073152;28;20481;-67
2022/12/15 07:32:57;;;;;;;9.43;2.40;;;5.30;99.90;;;;;;5074161;28;20058;-67
2022/12/15 07:35:22;;;;;;;10.15;2.38;;;5.60;99.90;;;;;;5074470;28;20123;-66
2022/12/15 07:37:48;;;;;;;17.58;2.78;;;5.70;99.90;;;;;;5072826;28;20048;-66
2022/12/15 07:40:13;;;;;;;14.02;3.03;;;5.80;41.30;;;;;;5074824;28;20490;-66
2022/12/15 07:42:39;;;;;;;13.07;2.20;;;5.60;1.00;;;;;;5074066;28;20410;-66
2022/12/15 07:45:06;;;;;;;14.80;2.72;;;5.40;1.00;;;;;;5073958;28;20071;-67
2022/12/15 07:47:32;;;;;;;13.60;2.47;;;5.30;1.00;;;;;;5073702;28;20144;-67
2022/12/15 07:49:58;;;;;;;13.75;2.42;;;5.30;1.00;;;;;;5074280;28;20513;-67
2022/12/15 07:52:24;;;;;;;17.20;2.63;;;5.40;1.00;;;;;;5074175;28;20509;-67
2022/12/15 07:54:49;;;;;;;11.30;2.22;;;5.30;1.00;;;;;;5073947;28;20379;-66
2022/12/15 07:57:15;;;;;;;9.98;2.28;;;5.30;1.00;;;;;;5087465;28;20165;-66
2022/12/15 07:59:41;;;;;;;13.48;2.70;;;5.30;1.00;;;;;;5074245;28;20081;-67
2022/12/15 08:02:11;;;;;;;13.57;2.25;;;5.20;1.00;;;;;;5070778;28;20533;-66
2022/12/15 08:04:37;;;;;;;9.02;2.22;;;5.20;1.00;;;;;;5074118;28;20032;-66
2022/12/15 08:07:03;;;;;;;12.32;3.10;;;5.30;1.00;;;;;;5072239;28;20037;-66
2022/12/15 08:09:30;;;;;;;12.15;2.75;;;5.10;1.00;;;;;;5069390;28;20039;-66
2022/12/15 08:11:56;;;;;;;12.40;2.47;;;5.20;1.00;;;;;;5068687;28;20054;-66
2022/12/15 08:14:21;;;;;;;13.48;2.45;;;5.30;1.00;;;;;;5069279;28;20494;-65
2022/12/15 08:16:47;;;;;;;13.23;2.85;;;5.40;1.00;;;;;;5071720;28;20076;-66
2022/12/15 08:19:14;;;;;;;10.75;2.55;;;5.40;1.00;;;;;;5072424;28;20127;-67
2022/12/15 08:21:41;;;;;;;13.43;2.40;;;5.40;1.00;;;;;;5064603;28;20075;-67
2022/12/15 08:24:08;;;;;;;14.02;3.03;;;5.30;1.00;;;;;;5054065;28;20036;-67
2022/12/15 08:26:34;;;;;;;13.38;2.28;;;5.40;1.00;;;;;;5070115;28;20036;-67
2022/12/15 08:29:02;;;;;;;16.83;2.45;;;5.40;1.00;;;;;;5071085;28;20036;-67
2022/12/15 08:31:30;;;;;;;14.55;2.70;;;5.40;1.00;;;;;;5073183;28;20110;-67
2022/12/15 08:33:56;;;;;;;18.50;2.83;;;5.40;1.00;;;;;;5073691;28;20429;-66
2022/12/15 08:36:22;;;;;;;13.27;2.70;;;5.30;1.00;;;;;;5073550;28;20066;-66
2022/12/15 08:38:48;;;;;;;13.88;2.47;;;5.40;1.00;;;;;;5073532;28;20047;-67
2022/12/15 08:41:18;;;;;;;13.57;2.65;;;5.30;1.00;;;;;;5073005;28;20044;-67
2022/12/15 08:43:46;;;;;;;13.63;2.60;;;5.30;1.00;;;;;;5073512;28;20375;-67
2022/12/15 08:46:12;;;;;;;15.02;2.70;;;5.30;1.00;;;;;;5073287;28;20056;-67
2022/12/15 08:48:38;;;;;;;13.90;3.08;;;5.30;1.00;;;;;;5071626;28;20490;-67
2022/12/15 08:51:03;;;;;;;13.02;2.20;;;5.30;1.00;;;;;;5072682;28;20119;-67
2022/12/15 08:53:29;;;;;;;15.75;3.08;;;5.30;1.00;;;;;;5066795;28;20405;-67
2022/12/15 08:55:55;;;;;;;21.20;3.40;;;5.40;1.00;;;;;;5054809;28;20047;-67
2022/12/15 08:58:20;;;;;;;12.30;3.30;;;5.40;1.00;;;;;;5070597;28;20032;-67
2022/12/15 09:00:46;;;;;;;13.38;2.60;;;5.40;1.00;;;;;;5071494;28;20072;-67
2022/12/15 09:03:12;;;;;;;16.75;2.63;;;5.30;1.00;;;;;;5072403;28;20028;-67
2022/12/15 09:05:37;;;;;;;18.85;3.33;;;5.40;1.00;;;;;;5073096;28;20066;-67
2022/12/15 09:08:04;;;;;;;15.32;2.72;;;5.30;1.00;;;;;;5069891;28;20037;-66
2022/12/15 09:10:30;;;;;;;15.63;3.58;;;5.60;1.00;;;;;;5071478;28;20050;-66
2022/12/15 09:12:55;;;;;;;16.40;2.55;;;5.60;1.00;;;;;;5070918;28;20040;-66
2022/12/15 09:15:21;;;;;;;16.30;3.05;;;5.60;1.00;;;;;;5072930;28;20037;-66
2022/12/15 09:17:46;;;;;;;22.08;3.15;;;5.50;1.00;;;;;;5070865;28;20038;-66
2022/12/15 09:20:13;;;;;;;17.50;2.78;;;5.40;1.00;;;;;;5072697;28;20045;-66
2022/12/15 09:22:40;;;;;;;13.27;2.85;;;5.30;1.00;;;;;;5069519;28;20052;-67
2022/12/15 09:25:06;;;;;;;10.32;2.33;;;5.10;1.00;;;;;;5071258;28;20044;-66
2022/12/15 09:27:33;;;;;;;8.20;2.38;;;4.90;1.00;;;;;;5078330;28;20076;-66
2022/12/15 09:29:58;;;;;;;13.05;2.90;;;5.20;1.00;;;;;;5072751;28;20033;-66
2022/12/15 09:32:24;;;;;;;15.25;2.72;;;5.00;1.00;;;;;;5070477;28;20044;-66
2022/12/15 09:34:50;;;;;;;12.65;2.65;;;5.10;1.00;;;;;;5072455;28;20521;-66
2022/12/15 09:37:16;;;;;;;10.57;2.08;;;5.20;1.00;;;;;;5071888;28;20147;-66
2022/12/15 09:39:41;;;;;;;10.50;2.55;;;5.20;1.00;;;;;;5072218;28;20106;-66
2022/12/15 09:42:39;;;;;;;15.00;2.50;;;5.30;1.00;;;;;;5071930;28;20070;-66
2022/12/15 09:45:21;;;;;;;11.55;2.38;;;5.30;1.00;;;;;;5037930;28;20056;-67
2022/12/15 09:47:52;;;;;;;14.13;2.90;;;5.50;99.90;;;;;;5070785;28;20102;-66
2022/12/15 09:50:24;;;;;;;16.45;2.30;;;5.70;99.90;;;;;;5069553;28;20033;-66
2022/12/15 09:52:57;;;;;;;15.50;3.08;;;5.90;99.90;;;;;;5070595;28;20097;-65
2022/12/15 09:55:31;;;;;;;10.73;2.20;;;5.90;99.90;;;;;;5071005;28;20119;-66
2022/12/15 09:58:05;;;;;;;12.52;2.58;;;5.90;99.90;;;;;;5071369;28;20047;-66
2022/12/15 10:01:07;;;;;;;14.18;3.05;;;5.70;99.90;;;;;;5071364;28;20493;-66
2022/12/15 10:04:15;;;;;;;10.65;2.13;;;5.40;99.90;;;;;;5064699;28;20056;-66
2022/12/15 10:07:19;;;;;;;11.15;2.25;;;5.20;99.90;;;;;;5006518;28;20528;-66
2022/12/15 10:09:44;;;;;;;13.63;2.72;;;5.50;99.90;;;;;;5010561;28;20049;-65
2022/12/15 10:12:20;;;;;;;18.38;2.60;;;5.60;99.90;;;;;;5060528;28;20043;-66
2022/12/15 10:15:10;;;;;;;7.07;2.17;;;5.80;99.90;;;;;;5057254;28;20112;-66
2022/12/15 10:18:19;;;;;;;12.52;2.65;;;6.10;99.90;;;;;;5071284;28;20052;-66
2022/12/15 10:20:44;;;;;;;13.15;2.55;;;6.20;99.90;;;;;;5066314;28;20045;-66
2022/12/15 10:23:13;;;;;;;13.13;2.53;;;6.20;99.90;;;;;;5066294;28;20437;-66
2022/12/15 10:25:47;;;;;;;12.60;2.60;;;6.10;99.90;;;;;;5053689;28;20085;-66
2022/12/15 10:28:15;;;;;;;9.90;2.50;;;6.10;99.90;;;;;;5051679;28;20045;-66
2022/12/15 10:31:01;;;;;;;12.60;2.30;;;6.00;99.90;;;;;;5061332;28;20390;-67
2022/12/15 10:33:32;;;;;;;10.80;2.30;;;5.90;99.90;;;;;;5071412;28;20490;-66
2022/12/15 10:35:58;;;;;;;10.35;3.40;;;5.90;99.90;;;;;;5069900;28;20040;-66
2022/12/15 10:38:36;;;;;;;10.65;2.80;;;6.40;99.90;;;;;;5066160;28;20040;-66
2022/12/15 10:41:06;;;;;;;14.07;2.97;;;6.40;99.90;;;;;;5066536;28;20101;-66
2022/12/15 10:43:37;;;;;;;14.32;2.80;;;6.50;99.90;;;;;;5071257;28;20040;-66
2022/12/15 10:46:13;;;;;;;12.70;2.72;;;6.30;99.90;;;;;;5070095;28;20071;-67
2022/12/15 10:48:44;;;;;;;11.63;2.92;;;6.30;99.90;;;;;;5069189;28;20037;-67
2022/12/15 10:51:15;;;;;;;12.07;2.90;;;6.10;99.90;;;;;;5068888;28;20040;-67
2022/12/15 10:54:03;;;;;;;13.25;2.63;;;6.00;99.90;;;;;;5071496;28;20037;-67
2022/12/15 10:56:30;;;;;;;13.30;3.20;;;5.90;99.90;;;;;;5063644;28;20502;-67
2022/12/15 10:58:59;;;;;;;12.85;2.85;;;5.80;99.90;;;;;;5071620;28;20037;-66
2022/12/15 11:01:31;;;;;;;11.93;2.20;;;5.70;99.90;;;;;;5070786;28;20098;-66
2022/12/15 11:03:57;;;;;;;7.93;2.15;;;5.40;99.90;;;;;;5070865;28;20589;-66
2022/12/15 11:06:31;;;;;;;8.55;2.25;;;5.30;99.90;;;;;;5069342;28;20119;-66
2022/12/15 11:09:07;;;;;;;15.88;2.50;;;5.40;99.90;;;;;;5062316;28;20047;-66
2022/12/15 11:14:44;;;;;;;9.52;2.17;;;5.70;99.90;;;;;;5073153;28;20041;-65
2022/12/15 11:17:15;;;;;;;6.25;1.95;;;6.30;99.90;;;;;;5071793;28;21142;-66
2022/12/15 11:19:48;;;;;;;11.30;2.35;;;6.60;99.90;;;;;;5074456;28;20100;-66
2022/12/15 11:22:36;;;;;;;16.65;2.22;;;6.60;99.90;;;;;;5064640;28;20076;-66
2022/12/15 11:25:21;;;;;;;11.10;2.10;;;6.60;99.90;;;;;;5075324;28;20039;-66
2022/12/15 11:27:50;;;;;;;11.07;2.15;;;6.50;99.90;;;;;;5074220;28;20102;-66
2022/12/15 11:30:32;;;;;;;12.57;2.55;;;6.40;99.90;;;;;;5074141;28;20383;-66
2022/12/15 11:32:59;;;;;;;17.05;2.50;;;6.30;99.90;;;;;;5068143;28;20037;-66
2022/12/15 11:35:41;;;;;;;10.25;1.88;;;6.30;99.90;;;;;;5068141;28;20505;-66
2022/12/15 11:38:23;;;;;;;9.73;1.92;;;6.20;99.90;;;;;;5068545;28;20044;-66
2022/12/15 11:40:50;;;;;;;11.00;2.40;;;6.30;99.90;;;;;;5089395;28;20094;-66
2022/12/15 11:43:43;;;;;;;9.13;1.92;;;6.40;99.90;;;;;;5074628;28;20516;-66
2022/12/15 11:46:21;;;;;;;12.35;2.20;;;6.30;99.90;;;;;;5089748;28;20056;-66
2022/12/15 11:49:24;;;;;;;9.20;1.83;;;6.30;99.90;;;;;;5054767;28;20086;-66
2022/12/15 11:51:59;;;;;;;11.98;2.72;;;6.20;99.90;;;;;;5065024;28;20036;-65
2022/12/15 11:54:36;;;;;;;13.75;2.10;;;6.70;99.90;;;;;;5072574;28;20036;-65
2022/12/15 11:57:11;;;;;;;16.50;2.65;;;6.60;99.90;;;;;;5073469;28;20414;-65
2022/12/15 11:59:55;;;;;;;13.70;2.80;;;6.30;99.90;;;;;;5073814;28;20048;-65
2022/12/15 12:02:50;;;;;;;17.13;2.72;;;6.10;99.90;;;;;;5072459;28;20048;-65
2022/12/15 12:05:37;;;;;;;10.98;1.98;;;6.10;99.90;;;;;;5072913;28;20033;-65
2022/12/15 12:08:14;;;;;;;16.45;2.63;;;5.80;99.90;;;;;;5068633;28;20411;-65
2022/12/15 12:10:58;;;;;;;12.60;2.30;;;5.70;99.90;;;;;;5071576;28;20041;-66
2022/12/15 12:13:51;;;;;;;7.32;2.13;;;5.50;99.90;;;;;;5071242;28;20082;-66
2022/12/15 12:16:17;;;;;;;10.95;2.13;;;5.20;99.90;;;;;;5073098;28;20028;-66
2022/12/15 12:18:54;;;;;;;9.82;1.95;;;4.90;99.90;;;;;;5071412;28;20082;-65
2022/12/15 12:21:26;;;;;;;12.43;2.65;;;4.80;99.90;;;;;;5062218;28;20409;-66
2022/12/15 12:24:08;;;;;;;21.13;2.50;;;4.60;99.90;;;;;;5072768;28;20047;-66
2022/12/15 12:26:40;;;;;;;14.60;2.63;;;4.40;99.90;;;;;;5073433;28;20049;-66
2022/12/15 12:29:40;;;;;;;14.95;2.60;;;4.50;99.90;;;;;;5068719;28;20040;-66
2022/12/15 12:32:10;;;;;;;20.50;2.92;;;4.70;99.90;;;;;;5073042;28;20044;-66
2022/12/15 12:34:49;;;;;;;14.32;2.80;;;4.80;99.90;;;;;;5073734;28;20068;-66
2022/12/15 12:37:22;;;;;;;10.30;2.40;;;5.30;99.90;;;;;;5072879;28;20040;-65
2022/12/15 12:39:49;;;;;;;13.35;2.95;;;5.80;1.00;;;;;;5089636;28;20064;-65
2022/12/15 12:42:34;;;;;;;13.05;3.22;;;5.90;1.00;;;;;;5073451;28;20037;-65
2022/12/15 12:45:01;;;;;;;22.80;2.78;;;6.00;1.00;;;;;;5073321;28;20123;-65
2022/12/15 12:47:39;;;;;;;14.55;3.38;;;6.00;1.00;;;;;;5071432;28;20465;-65
2022/12/15 12:50:25;;;;;;;19.08;3.10;;;6.10;1.00;;;;;;5073860;28;20504;-66
2022/12/15 12:52:57;;;;;;;21.58;3.63;;;6.20;1.00;;;;;;5072143;28;20036;-65
2022/12/15 12:55:38;;;;;;;20.92;3.58;;;6.20;1.00;;;;;;5072322;28;20028;-66
2022/12/15 12:58:38;;;;;;;13.63;2.90;;;5.90;1.00;;;;;;5066356;28;20072;-65
2022/12/15 13:01:09;;;;;;;16.30;2.83;;;5.60;99.90;;;;;;5069943;28;20032;-65
2022/12/15 13:03:38;;;;;;;15.15;3.45;;;5.40;99.90;;;;;;5072798;28;20032;-65
2022/12/15 13:06:34;;;;;;;19.88;3.42;;;5.40;99.90;;;;;;5072565;28;20070;-65
2022/12/15 13:09:18;;;;;;;18.55;3.30;;;5.40;1.00;;;;;;5071160;28;20504;-65
2022/12/15 13:11:57;;;;;;;16.88;3.63;;;5.60;1.00;;;;;;5072019;28;20036;-65
2022/12/15 13:14:29;;;;;;;17.00;2.75;;;6.00;1.00;;;;;;5071623;28;20478;-65
2022/12/15 13:17:29;;;;;;;20.40;3.28;;;5.90;1.00;;;;;;5069406;28;20455;-65
2022/12/15 13:19:57;;;;;;;13.50;3.22;;;6.00;1.00;;;;;;5031817;28;20055;-65
2022/12/15 13:22:34;;;;;;;19.73;3.22;;;6.00;1.00;;;;;;5066039;28;20149;-66
2022/12/15 13:25:01;;;;;;;13.05;2.65;;;6.00;1.00;;;;;;5071235;28;20109;-65
2022/12/15 13:27:39;;;;;;;12.07;2.00;;;6.00;1.00;;;;;;5064694;28;20032;-65
2022/12/15 13:30:07;;;;;;;11.52;2.08;;;6.00;1.00;;;;;;5071256;28;20044;-65
2022/12/15 13:32:34;;;;;;;9.90;1.73;;;6.00;26.80;;;;;;5072570;28;20548;-66
2022/12/15 13:35:12;;;;;;;16.73;2.22;;;5.70;57.00;;;;;;5072301;28;20072;-65
2022/12/15 13:37:58;;;;;;;11.55;2.10;;;5.70;99.90;;;;;;5070599;28;20125;-65
2022/12/15 13:40:32;;;;;;;10.33;2.03;;;5.50;99.90;;;;;;5072308;28;20141;-66
2022/12/15 13:43:04;;;;;;;14.02;2.45;;;5.60;99.90;;;;;;5085945;28;20799;-66
2022/12/15 13:45:44;;;;;;;12.73;1.65;;;5.30;99.90;;;;;;5070033;28;20649;-65
2022/12/15 13:48:22;;;;;;;6.57;1.50;;;5.20;99.90;;;;;;5068693;28;20444;-65
2022/12/15 13:51:10;;;;;;;11.07;1.63;;;5.40;99.90;;;;;;5070078;28;20033;-65
2022/12/15 13:53:41;;;;;;;8.00;1.63;;;5.20;99.90;;;;;;5070080;28;20040;-65
2022/12/15 13:56:09;;;;;;;12.10;1.90;;;5.50;99.90;;;;;;5071987;28;20028;-65
2022/12/15 13:58:49;;;;;;;15.68;2.45;;;5.20;99.90;;;;;;5063297;28;20061;-64
2022/12/15 14:01:27;;;;;;;21.52;2.28;;;5.50;1.00;;;;;;5064085;28;20067;-65
2022/12/15 14:04:15;;;;;;;20.13;2.78;;;5.20;1.00;;;;;;5071726;28;20036;-65
2022/12/15 14:07:01;;;;;;;9.10;2.15;;;5.50;99.90;;;;;;5066342;28;20043;-65
2022/12/15 14:09:34;;;;;;;8.88;2.53;;;5.20;95.20;;;;;;5086686;28;20476;-65
2022/12/15 14:12:07;;;;;;;13.50;2.28;;;5.30;7.30;;;;;;5058206;28;20033;-64
2022/12/15 14:14:36;;;;;;;15.63;2.30;;;4.90;93.70;;;;;;5071418;28;20037;-64
2022/12/15 14:17:07;;;;;;;15.10;2.13;;;5.30;99.90;;;;;;5059165;28;20527;-65
2022/12/15 14:19:45;;;;;;;14.13;2.03;;;5.50;99.90;;;;;;5070890;28;20051;-65
2022/12/15 14:22:27;;;;;;;7.78;1.67;;;5.50;99.90;;;;;;5070239;28;20091;-65
2022/12/15 14:25:02;;;;;;;6.53;1.70;;;5.50;1.00;;;;;;5070927;28;20482;-65
2022/12/15 14:27:30;;;;;;;3.88;1.27;;;5.00;1.00;;;;;;5070346;28;20037;-64
2022/12/15 14:30:29;;;;;;;3.55;1.30;;;5.10;1.00;;;;;;5070714;28;20041;-65
2022/12/15 14:33:11;;;;;;;6.40;1.75;;;5.00;99.90;;;;;;5070195;28;20494;-65
2022/12/15 14:35:41;;;;;;;4.50;1.48;;;4.20;99.90;;;;;;5071489;28;20044;-65
2022/12/15 14:38:11;;;;;;;5.35;1.73;;;4.10;99.90;;;;;;5071553;28;20041;-65
2022/12/15 14:40:38;;;;;;;7.20;1.60;;;4.30;52.50;;;;;;5071746;28;20041;-65
2022/12/15 14:43:11;;;;;;;5.60;1.50;;;4.40;17.60;;;;;;5070573;28;20115;-65
2022/12/15 14:45:37;;;;;;;4.82;1.20;;;4.60;99.90;;;;;;5051654;28;20061;-65
2022/12/15 14:48:07;;;;;;;4.32;1.33;;;5.00;99.90;;;;;;5066751;28;20318;-64
2022/12/15 14:50:35;;;;;;;6.68;1.30;;;5.10;99.90;;;;;;5075209;28;20041;-65
2022/12/15 14:53:06;;;;;;;9.15;1.60;;;5.20;99.90;;;;;;5075130;28;20082;-65
2022/12/15 14:55:34;;;;;;;6.22;1.50;;;4.70;99.90;;;;;;5075168;28;20055;-65
2022/12/15 14:58:00;;;;;;;8.88;1.80;;;4.70;99.90;;;;;;5074412;28;20111;-65
2022/12/15 15:00:28;;;;;;;4.60;1.30;;;5.00;99.90;;;;;;5075172;28;20127;-64
2022/12/15 15:03:20;;;;;;;4.72;1.67;;;4.90;68.50;;;;;;5075026;28;20051;-64
2022/12/15 15:06:19;;;;;;;5.60;1.48;;;4.30;1.00;;;;;;5075294;28;20166;-65
2022/12/15 15:08:51;;;;;;;4.30;1.15;;;3.90;99.90;;;;;;5040439;28;20455;-64
2022/12/15 15:11:28;;;;;;;6.50;1.30;;;3.80;99.90;;;;;;5074930;28;20119;-64
2022/12/15 15:14:01;;;;;;;2.90;1.10;;;3.80;99.90;;;;;;5074435;28;20079;-64
2022/12/15 15:16:27;;;;;;;486.70;23.70;;;3.60;99.90;;;;;;5073606;28;20032;-64
2022/12/15 15:18:54;;;;;;;7.75;1.30;;;3.60;1.00;;;;;;5074722;28;20444;-64
2022/12/15 15:21:27;;;;;;;6.28;1.33;;;4.10;1.00;;;;;;5064873;28;20063;-64
2022/12/15 15:24:20;;;;;;;6.00;1.50;;;3.70;1.00;;;;;;5067569;28;20033;-64
2022/12/15 15:26:45;;;;;;;9.60;1.55;;;4.30;1.00;;;;;;5072657;28;20036;-64
2022/12/15 15:29:39;;;;;;;6.38;1.63;;;4.30;11.40;;;;;;5074421;28;20037;-64
2022/12/15 15:32:16;;;;;;;11.05;1.55;;;4.40;32.90;;;;;;5071561;28;20040;-64
2022/12/15 15:34:43;;;;;;;6.43;1.58;;;3.80;39.70;;;;;;5074723;28;20402;-64
2022/12/15 15:37:23;;;;;;;7.57;1.60;;;3.80;1.00;;;;;;5074208;28;20041;-64
2022/12/15 15:39:51;;;;;;;4.97;1.40;;;3.30;1.00;;;;;;5074925;28;20102;-64
2022/12/15 15:42:16;;;;;;;3.80;1.30;;;3.40;1.00;;;;;;5072962;28;20052;-64
2022/12/15 15:44:42;;;;;;;7.85;1.83;;;3.30;1.00;;;;;;5073869;28;20397;-64
2022/12/15 15:47:27;;;;;;;7.07;1.65;;;2.90;1.00;;;;;;5072791;28;20084;-64